Terminal Aerodrome Forecast
Issued by NWS

Home | Current Version | Previous Version | Graphics & Text | Print | Product List | Glossary On
Versions: 1 2 3 4 5 6 7 8 9 10 11 12 13 14
000
FTUS43 KMPX 202346
TAFRNH
TAF
KRNH 202346Z 2100/2124 32006KT P6SM SCT100
     FM210600 VRB03KT P6SM SCT080 BKN200
     FM211500 11003KT P6SM SCT040 BKN100=

USA.gov is the U.S. government's official web portal to all federal, state and local government web resources and services.